WZZ2WT LZIB-EPWA
Flight info
| Callsign | WZZ2WT |
|---|---|
| Flight time | 0h 55m |
| Altitude | 31000 |
| Route | NIT M985 NIDOK DCT MEBAN DCT ORTEB DCT KONZI DCT LOGDA |
| Aircraft | A21N/M-SDE3FGHIRWY/LB1 |
Departure
| Time | 2026-04-30 13:01 |
|---|---|
| Airport | M. R. Štefánik Airport (LZIB) |
Arrival
| Time | 2026-04-30 13:56 |
|---|---|
| Airport | Warsaw Chopin Airport (EPWA) |
| Time | Latitude | Longitude | Altitude | Speed | Heading |
|---|---|---|---|---|---|
| 2026-04-30 12:39 | 48.16860 | 17.20019 | 445 ft | 0 kts | 314° |
| 2026-04-30 12:53 | 48.16854 | 17.20029 | 445 ft | 2 kts | 314° |
| 2026-04-30 12:53 | 48.16843 | 17.20045 | 445 ft | 2 kts | 314° |
| 2026-04-30 12:53 | 48.16831 | 17.20059 | 445 ft | 2 kts | 344° |
| 2026-04-30 12:53 | 48.16816 | 17.20061 | 445 ft | 2 kts | 12° |
| 2026-04-30 12:54 | 48.16803 | 17.20052 | 445 ft | 1 kts | 39° |
| 2026-04-30 12:54 | 48.16799 | 17.20046 | 445 ft | 1 kts | 46° |
| 2026-04-30 12:54 | 48.16797 | 17.20043 | 445 ft | 0 kts | 44° |
| 2026-04-30 12:56 | 48.16797 | 17.20044 | 445 ft | 0 kts | 44° |
| 2026-04-30 12:56 | 48.16807 | 17.20058 | 445 ft | 3 kts | 43° |
| 2026-04-30 12:56 | 48.16841 | 17.20105 | 445 ft | 9 kts | 43° |
| 2026-04-30 12:57 | 48.16851 | 17.20142 | 445 ft | 5 kts | 104° |
| 2026-04-30 12:57 | 48.16808 | 17.20219 | 445 ft | 14 kts | 132° |
| 2026-04-30 12:57 | 48.16723 | 17.20351 | 445 ft | 17 kts | 150° |
| 2026-04-30 12:57 | 48.16668 | 17.20318 | 445 ft | 7 kts | 220° |
| 2026-04-30 12:58 | 48.16622 | 17.20260 | 445 ft | 10 kts | 218° |
| 2026-04-30 12:58 | 48.16548 | 17.20169 | 445 ft | 16 kts | 221° |
| 2026-04-30 12:58 | 48.16449 | 17.20042 | 445 ft | 20 kts | 220° |
| 2026-04-30 12:58 | 48.16340 | 17.19899 | 445 ft | 21 kts | 220° |
| 2026-04-30 12:59 | 48.16215 | 17.19793 | 445 ft | 20 kts | 172° |
| 2026-04-30 12:59 | 48.16121 | 17.19910 | 445 ft | 16 kts | 123° |
| 2026-04-30 12:59 | 48.16140 | 17.20025 | 445 ft | 4 kts | 43° |
| 2026-04-30 12:59 | 48.16140 | 17.20026 | 445 ft | 0 kts | 43° |
| 2026-04-30 13:00 | 48.16170 | 17.20069 | 445 ft | 30 kts | 43° |
| 2026-04-30 13:00 | 48.16505 | 17.20550 | 445 ft | 100 kts | 44° |
| 2026-04-30 13:00 | 48.17155 | 17.21485 | 445 ft | 157 kts | 43° |
| 2026-04-30 13:00 | 48.17990 | 17.22693 | 845 ft | 170 kts | 42° |
| 2026-04-30 13:01 | 48.18848 | 17.23922 | 1479 ft | 174 kts | 41° |
| 2026-04-30 13:01 | 48.19698 | 17.25140 | 2235 ft | 171 kts | 43° |
| 2026-04-30 13:01 | 48.20574 | 17.26419 | 2740 ft | 181 kts | 43° |
| 2026-04-30 13:01 | 48.21513 | 17.27765 | 3135 ft | 197 kts | 43° |
| 2026-04-30 13:02 | 48.22336 | 17.29507 | 3461 ft | 220 kts | 65° |
| 2026-04-30 13:02 | 48.22694 | 17.31878 | 3891 ft | 240 kts | 78° |
| 2026-04-30 13:02 | 48.23226 | 17.34261 | 4407 ft | 249 kts | 53° |
| 2026-04-30 13:02 | 48.24347 | 17.36190 | 5158 ft | 251 kts | 45° |
| 2026-04-30 13:03 | 48.25555 | 17.38076 | 5982 ft | 253 kts | 45° |
| 2026-04-30 13:03 | 48.26751 | 17.40007 | 6786 ft | 255 kts | 46° |
| 2026-04-30 13:03 | 48.27927 | 17.41981 | 7573 ft | 257 kts | 47° |
| 2026-04-30 13:03 | 48.29084 | 17.43981 | 8357 ft | 258 kts | 48° |
| 2026-04-30 13:04 | 48.30249 | 17.46033 | 9108 ft | 260 kts | 48° |
| 2026-04-30 13:04 | 48.31408 | 17.48103 | 9848 ft | 261 kts | 49° |
| 2026-04-30 13:04 | 48.32572 | 17.50202 | 10571 ft | 263 kts | 49° |
| 2026-04-30 13:04 | 48.33746 | 17.52327 | 11031 ft | 274 kts | 49° |
| 2026-04-30 13:05 | 48.35003 | 17.54610 | 11356 ft | 289 kts | 49° |
| 2026-04-30 13:05 | 48.36291 | 17.56959 | 11884 ft | 296 kts | 49° |
| 2026-04-30 13:05 | 48.37585 | 17.59328 | 12563 ft | 298 kts | 49° |
| 2026-04-30 13:06 | 48.40234 | 17.64180 | 13861 ft | 302 kts | 49° |
| 2026-04-30 13:06 | 48.41548 | 17.66591 | 14462 ft | 304 kts | 49° |
| 2026-04-30 13:06 | 48.42908 | 17.69089 | 15116 ft | 306 kts | 49° |
| 2026-04-30 13:06 | 48.44255 | 17.71566 | 15720 ft | 308 kts | 49° |
| 2026-04-30 13:07 | 48.45611 | 17.74063 | 16317 ft | 310 kts | 49° |
| 2026-04-30 13:07 | 48.46983 | 17.76587 | 16882 ft | 312 kts | 49° |
| 2026-04-30 13:07 | 48.48370 | 17.79146 | 17371 ft | 317 kts | 49° |
| 2026-04-30 13:07 | 48.49762 | 17.81714 | 17813 ft | 322 kts | 49° |
| 2026-04-30 13:08 | 48.51189 | 17.84349 | 18336 ft | 324 kts | 49° |
| 2026-04-30 13:08 | 48.52597 | 17.86954 | 18874 ft | 326 kts | 49° |
| 2026-04-30 13:08 | 48.54043 | 17.89633 | 19397 ft | 328 kts | 49° |
| 2026-04-30 13:08 | 48.55483 | 17.92302 | 19886 ft | 331 kts | 49° |
| 2026-04-30 13:09 | 48.56934 | 17.94995 | 20378 ft | 333 kts | 49° |
| 2026-04-30 13:09 | 48.58385 | 17.97691 | 20858 ft | 335 kts | 49° |
| 2026-04-30 13:09 | 48.59869 | 18.00448 | 21324 ft | 337 kts | 49° |
| 2026-04-30 13:09 | 48.61345 | 18.03197 | 21818 ft | 339 kts | 49° |
| 2026-04-30 13:10 | 48.62821 | 18.05946 | 22272 ft | 341 kts | 49° |
| 2026-04-30 13:10 | 48.64315 | 18.08732 | 22690 ft | 344 kts | 49° |
| 2026-04-30 13:10 | 48.65824 | 18.11550 | 23110 ft | 346 kts | 49° |
| 2026-04-30 13:10 | 48.67335 | 18.14373 | 23495 ft | 349 kts | 49° |
| 2026-04-30 13:11 | 48.68879 | 18.17262 | 23889 ft | 351 kts | 49° |
| 2026-04-30 13:11 | 48.70413 | 18.20134 | 24260 ft | 354 kts | 49° |
| 2026-04-30 13:11 | 48.71959 | 18.23028 | 24654 ft | 355 kts | 49° |
| 2026-04-30 13:11 | 48.73508 | 18.25937 | 25051 ft | 357 kts | 49° |
| 2026-04-30 13:12 | 48.75062 | 18.28855 | 25427 ft | 358 kts | 49° |
| 2026-04-30 13:12 | 48.76620 | 18.31787 | 25774 ft | 360 kts | 49° |
| 2026-04-30 13:12 | 48.78198 | 18.34758 | 26108 ft | 362 kts | 49° |
| 2026-04-30 13:13 | 48.81372 | 18.40746 | 26751 ft | 366 kts | 49° |
| 2026-04-30 13:13 | 48.82976 | 18.43775 | 27076 ft | 367 kts | 49° |
| 2026-04-30 13:13 | 48.86165 | 18.49810 | 27662 ft | 371 kts | 49° |
| 2026-04-30 13:14 | 48.87802 | 18.52912 | 27949 ft | 373 kts | 49° |
| 2026-04-30 13:14 | 48.89405 | 18.55958 | 28225 ft | 375 kts | 49° |
| 2026-04-30 13:14 | 48.92692 | 18.62207 | 28819 ft | 378 kts | 49° |
| 2026-04-30 13:15 | 48.94335 | 18.65336 | 29086 ft | 380 kts | 50° |
| 2026-04-30 13:15 | 48.97661 | 18.71682 | 29640 ft | 383 kts | 50° |
| 2026-04-30 13:15 | 48.99308 | 18.74829 | 29922 ft | 384 kts | 50° |
| 2026-04-30 13:16 | 49.00972 | 18.78016 | 30188 ft | 386 kts | 50° |
| 2026-04-30 13:16 | 49.02632 | 18.81198 | 30447 ft | 387 kts | 50° |
| 2026-04-30 13:16 | 49.04305 | 18.84406 | 30691 ft | 389 kts | 50° |
| 2026-04-30 13:17 | 49.07682 | 18.90891 | 31142 ft | 393 kts | 50° |
| 2026-04-30 13:17 | 49.09372 | 18.94146 | 31285 ft | 396 kts | 50° |
| 2026-04-30 13:18 | 49.14515 | 19.04074 | 31331 ft | 395 kts | 50° |
| 2026-04-30 13:18 | 49.19604 | 19.13934 | 31331 ft | 394 kts | 50° |
| 2026-04-30 13:19 | 49.22986 | 19.20503 | 31322 ft | 395 kts | 50° |
| 2026-04-30 13:19 | 49.26403 | 19.27160 | 31320 ft | 395 kts | 50° |
| 2026-04-30 13:20 | 49.29774 | 19.33743 | 31317 ft | 394 kts | 50° |
| 2026-04-30 13:20 | 49.33129 | 19.40310 | 31316 ft | 395 kts | 49° |
| 2026-04-30 13:21 | 49.36512 | 19.46946 | 31318 ft | 394 kts | 50° |
| 2026-04-30 13:22 | 49.41568 | 19.56899 | 31319 ft | 394 kts | 49° |
| 2026-04-30 13:22 | 49.46927 | 19.66305 | 31307 ft | 392 kts | 39° |
| 2026-04-30 13:23 | 49.54172 | 19.72013 | 31323 ft | 392 kts | 21° |
| 2026-04-30 13:24 | 49.64444 | 19.77709 | 31319 ft | 391 kts | 21° |
| 2026-04-30 13:25 | 49.74600 | 19.83352 | 31333 ft | 388 kts | 22° |
| 2026-04-30 13:26 | 49.87260 | 19.90429 | 31361 ft | 386 kts | 22° |
| 2026-04-30 13:28 | 49.99827 | 19.97493 | 31385 ft | 384 kts | 22° |
| 2026-04-30 13:28 | 50.07313 | 20.01722 | 31385 ft | 381 kts | 22° |
| 2026-04-30 13:29 | 50.17316 | 20.07390 | 31389 ft | 383 kts | 22° |
| 2026-04-30 13:31 | 50.29807 | 20.14506 | 31379 ft | 383 kts | 22° |
| 2026-04-30 13:32 | 50.42239 | 20.21625 | 31381 ft | 380 kts | 22° |
| 2026-04-30 13:33 | 50.52125 | 20.27319 | 31383 ft | 379 kts | 22° |
| 2026-04-30 13:34 | 50.59544 | 20.31609 | 31388 ft | 379 kts | 22° |
| 2026-04-30 13:34 | 50.66959 | 20.35906 | 30927 ft | 376 kts | 22° |
| 2026-04-30 13:35 | 50.69397 | 20.37321 | 30473 ft | 372 kts | 22° |
| 2026-04-30 13:35 | 50.74171 | 20.40102 | 29647 ft | 365 kts | 22° |
| 2026-04-30 13:36 | 50.78896 | 20.42859 | 28799 ft | 360 kts | 22° |
| 2026-04-30 13:36 | 50.81215 | 20.44212 | 28365 ft | 357 kts | 22° |
| 2026-04-30 13:36 | 50.85824 | 20.46909 | 27515 ft | 351 kts | 22° |
| 2026-04-30 13:37 | 50.88091 | 20.48241 | 27089 ft | 348 kts | 22° |
| 2026-04-30 13:37 | 50.92609 | 20.50893 | 26072 ft | 345 kts | 22° |
| 2026-04-30 13:38 | 50.97093 | 20.53533 | 24983 ft | 343 kts | 21° |
| 2026-04-30 13:38 | 50.99322 | 20.54846 | 24444 ft | 342 kts | 21° |
| 2026-04-30 13:38 | 51.03732 | 20.57447 | 23367 ft | 338 kts | 21° |
| 2026-04-30 13:39 | 51.08088 | 20.60021 | 22477 ft | 330 kts | 21° |
| 2026-04-30 13:39 | 51.12341 | 20.62539 | 21583 ft | 324 kts | 21° |
| 2026-04-30 13:40 | 51.14487 | 20.63816 | 21041 ft | 324 kts | 21° |
| 2026-04-30 13:40 | 51.16584 | 20.65061 | 20511 ft | 324 kts | 22° |
| 2026-04-30 13:40 | 51.18724 | 20.66334 | 20015 ft | 322 kts | 22° |
| 2026-04-30 13:40 | 51.20837 | 20.67591 | 19553 ft | 320 kts | 22° |
| 2026-04-30 13:41 | 51.22920 | 20.68833 | 19116 ft | 318 kts | 22° |
| 2026-04-30 13:41 | 51.24984 | 20.70062 | 18673 ft | 316 kts | 22° |
| 2026-04-30 13:41 | 51.27012 | 20.71273 | 18206 ft | 315 kts | 22° |
| 2026-04-30 13:41 | 51.29058 | 20.72496 | 17715 ft | 314 kts | 22° |
| 2026-04-30 13:42 | 51.31103 | 20.73719 | 17209 ft | 314 kts | 22° |
| 2026-04-30 13:42 | 51.33127 | 20.74931 | 16672 ft | 314 kts | 22° |
| 2026-04-30 13:42 | 51.37214 | 20.77378 | 15671 ft | 313 kts | 21° |
| 2026-04-30 13:43 | 51.39254 | 20.78603 | 15154 ft | 313 kts | 21° |
| 2026-04-30 13:43 | 51.41270 | 20.79814 | 14666 ft | 312 kts | 22° |
| 2026-04-30 13:43 | 51.43309 | 20.81041 | 14163 ft | 311 kts | 21° |
| 2026-04-30 13:43 | 51.45314 | 20.82249 | 13671 ft | 311 kts | 21° |
| 2026-04-30 13:44 | 51.47346 | 20.83474 | 13158 ft | 311 kts | 21° |
| 2026-04-30 13:44 | 51.49346 | 20.84680 | 12663 ft | 310 kts | 21° |
| 2026-04-30 13:44 | 51.51355 | 20.85892 | 12170 ft | 309 kts | 21° |
| 2026-04-30 13:44 | 51.53368 | 20.87111 | 11693 ft | 307 kts | 21° |
| 2026-04-30 13:45 | 51.57332 | 20.89507 | 10804 ft | 302 kts | 21° |
| 2026-04-30 13:45 | 51.59250 | 20.90669 | 10661 ft | 289 kts | 21° |
| 2026-04-30 13:45 | 51.61082 | 20.91780 | 10534 ft | 277 kts | 21° |
| 2026-04-30 13:46 | 51.62835 | 20.92843 | 10390 ft | 266 kts | 21° |
| 2026-04-30 13:46 | 51.64576 | 20.93901 | 9989 ft | 265 kts | 21° |
| 2026-04-30 13:46 | 51.66291 | 20.94945 | 9585 ft | 264 kts | 21° |
| 2026-04-30 13:46 | 51.67990 | 20.95979 | 9197 ft | 262 kts | 21° |
| 2026-04-30 13:47 | 51.69687 | 20.97012 | 8824 ft | 260 kts | 20° |
| 2026-04-30 13:47 | 51.71370 | 20.98037 | 8455 ft | 258 kts | 20° |
| 2026-04-30 13:47 | 51.73040 | 20.99056 | 8097 ft | 256 kts | 20° |
| 2026-04-30 13:47 | 51.74699 | 21.00068 | 7739 ft | 254 kts | 20° |
| 2026-04-30 13:48 | 51.76351 | 21.01077 | 7386 ft | 252 kts | 20° |
| 2026-04-30 13:48 | 51.77994 | 21.02081 | 7030 ft | 250 kts | 20° |
| 2026-04-30 13:48 | 51.79613 | 21.03070 | 6682 ft | 249 kts | 20° |
| 2026-04-30 13:48 | 51.81214 | 21.04051 | 6348 ft | 246 kts | 20° |
| 2026-04-30 13:49 | 51.82822 | 21.05036 | 6009 ft | 245 kts | 20° |
| 2026-04-30 13:49 | 51.84396 | 21.06002 | 5677 ft | 243 kts | 20° |
| 2026-04-30 13:49 | 51.85974 | 21.06970 | 5350 ft | 241 kts | 20° |
| 2026-04-30 13:49 | 51.87529 | 21.07926 | 5030 ft | 239 kts | 20° |
| 2026-04-30 13:50 | 51.89088 | 21.08884 | 4714 ft | 238 kts | 20° |
| 2026-04-30 13:50 | 51.92158 | 21.10773 | 4087 ft | 235 kts | 20° |
| 2026-04-30 13:50 | 51.93681 | 21.11712 | 3776 ft | 234 kts | 20° |
| 2026-04-30 13:51 | 51.95185 | 21.12640 | 3472 ft | 233 kts | 19° |
| 2026-04-30 13:51 | 51.96749 | 21.13207 | 3167 ft | 229 kts | 355° |
| 2026-04-30 13:51 | 51.98239 | 21.12611 | 3132 ft | 218 kts | 338° |
| 2026-04-30 13:51 | 51.99618 | 21.11566 | 3096 ft | 215 kts | 334° |
| 2026-04-30 13:52 | 52.00899 | 21.10463 | 3052 ft | 205 kts | 333° |
| 2026-04-30 13:52 | 52.02101 | 21.09396 | 3135 ft | 188 kts | 333° |
| 2026-04-30 13:52 | 52.03205 | 21.08415 | 3046 ft | 172 kts | 333° |
| 2026-04-30 13:52 | 52.04218 | 21.07521 | 2863 ft | 163 kts | 334° |
| 2026-04-30 13:53 | 52.05197 | 21.06662 | 2629 ft | 155 kts | 333° |
| 2026-04-30 13:53 | 52.06122 | 21.05852 | 2414 ft | 147 kts | 333° |
| 2026-04-30 13:53 | 52.07005 | 21.05081 | 2226 ft | 145 kts | 333° |
| 2026-04-30 13:53 | 52.07893 | 21.04305 | 2078 ft | 141 kts | 332° |
| 2026-04-30 13:54 | 52.08744 | 21.03562 | 1883 ft | 137 kts | 332° |
| 2026-04-30 13:54 | 52.09573 | 21.02833 | 1693 ft | 136 kts | 334° |
| 2026-04-30 13:54 | 52.10409 | 21.02104 | 1507 ft | 136 kts | 332° |
| 2026-04-30 13:54 | 52.11242 | 21.01374 | 1319 ft | 135 kts | 332° |
| 2026-04-30 13:55 | 52.12067 | 21.00653 | 1132 ft | 135 kts | 332° |
| 2026-04-30 13:55 | 52.12888 | 20.99938 | 952 ft | 135 kts | 329° |
| 2026-04-30 13:55 | 52.13720 | 20.99211 | 773 ft | 134 kts | 330° |
| 2026-04-30 13:55 | 52.14538 | 20.98498 | 594 ft | 134 kts | 330° |
| 2026-04-30 13:56 | 52.15354 | 20.97786 | 421 ft | 133 kts | 329° |
| 2026-04-30 13:56 | 52.16149 | 20.97085 | 350 ft | 117 kts | 331° |
| 2026-04-30 13:56 | 52.16714 | 20.96588 | 350 ft | 68 kts | 331° |
| 2026-04-30 13:56 | 52.16990 | 20.96364 | 350 ft | 25 kts | 358° |
| 2026-04-30 13:57 | 52.17069 | 20.96510 | 350 ft | 15 kts | 62° |
| 2026-04-30 13:57 | 52.17118 | 20.96659 | 350 ft | 15 kts | 62° |
| 2026-04-30 13:57 | 52.17168 | 20.96799 | 350 ft | 12 kts | 41° |
| 2026-04-30 13:57 | 52.17238 | 20.96773 | 350 ft | 6 kts | 330° |
| 2026-04-30 13:58 | 52.17245 | 20.96749 | 350 ft | 2 kts | 229° |
| 2026-04-30 13:58 | 52.17211 | 20.96695 | 350 ft | 4 kts | 211° |
| 2026-04-30 13:58 | 52.17200 | 20.96685 | 350 ft | 1 kts | 213° |
| 2026-04-30 13:59 | 52.17196 | 20.96681 | 350 ft | 0 kts | 208° |